San Julian, Argentina
Current Conditions -  °F | °C
As of 10:00 PM on Saturday 22 Nov 2014 (Local Time) from SAWG Reporting Station
Scattered Clouds Scattered Clouds  
Wind Chill: 40°   Ceiling: Unl
Heat Index: 45°   Visibility: 6mi
Dew Point: 28°   Wind: 9mph
Humidity: 53%   Direction: 230°SW
Pressure: 29.59"   Gusts: NA
Location:  49.31°S, 67.71°W
Report Text: SAWG 230100Z 23008KT 9999 SCT030 SCT100 07/M02 Q1002
Loading
Personal Weather Stations






























Interactive Weather Map New forecast layout! Learn more

10-Day Weather Forecast

Advertisements
Track Severe Weather on mobile